CWFD

Cape Dyer Airport

Canada
METAR CWFD 172300Z AUTO 30009KT ////SM //// NCD M19/M28 A2945
Observed Flight Rules
Nov-17 @ 23:00 UTC (35 minutes ago)
Wind Clouds
300° at 9 knots
  • Clear skies
Temperatures Readings
Current -19°C / -2°F
Dewpoint -28°C / -18°F
Humidity 45%
Altimeter 29.45" Hg
Pressure 997 hPa
Elevation 393
METAR CWFD 172300Z AUTO 30009KT ////SM //// NCD M19/M28 A2945
Observed Flight Rules
Nov-17 @ 23:00 UTC
(35 minutes ago)
Wind
300° at 9 knots
Clouds
  • Clear skies
Temperature Dewpoint
-19°C / -2°F -28°C / -18°F
Humidity Altimeter Pressure
45% 29.45" Hg 997 hPa